createdAt,value
2022-11-30T00:01:18.092Z,22.77
2022-11-30T00:03:44.914Z,21.33
2022-11-30T00:06:14.402Z,20.60
2022-11-30T00:08:41.095Z,20.92
2022-11-30T00:11:13.479Z,21.70
2022-11-30T00:13:40.604Z,22.15
2022-11-30T00:16:08.180Z,23.17
2022-11-30T00:18:35.571Z,22.33
2022-11-30T00:21:04.574Z,25.33
2022-11-30T00:23:35.876Z,23.55
2022-11-30T00:26:04.025Z,23.48
2022-11-30T00:28:32.241Z,20.80
2022-11-30T00:31:04.677Z,22.70
2022-11-30T00:33:35.759Z,22.27
2022-11-30T00:36:07.856Z,23.23
2022-11-30T00:38:34.592Z,22.08
2022-11-30T00:41:03.016Z,22.75
2022-11-30T00:43:30.435Z,23.30
2022-11-30T00:45:57.274Z,23.30
2022-11-30T00:48:24.405Z,22.80
2022-11-30T00:50:51.684Z,22.48
2022-11-30T00:53:19.679Z,22.75
2022-11-30T00:55:46.788Z,22.27
2022-11-30T00:58:13.973Z,20.70
2022-11-30T01:00:41.455Z,19.80
2022-11-30T01:03:08.477Z,21.63
2022-11-30T01:05:35.571Z,21.40
2022-11-30T01:08:03.761Z,22.08
2022-11-30T01:10:30.687Z,17.40
2022-11-30T01:12:57.356Z,20.52
2022-11-30T01:15:24.229Z,20.15
2022-11-30T01:17:51.307Z,21.27
2022-11-30T01:20:18.538Z,21.08
2022-11-30T01:22:45.215Z,22.58
2022-11-30T01:25:11.993Z,18.45
2022-11-30T01:27:38.672Z,15.32
2022-11-30T01:30:06.049Z,17.90
2022-11-30T01:32:32.707Z,16.83
2022-11-30T01:34:59.393Z,18.13
2022-11-30T01:37:26.094Z,20.50
2022-11-30T01:39:52.774Z,17.80
2022-11-30T01:42:20.451Z,18.30
2022-11-30T01:44:56.397Z,17.83
2022-11-30T01:47:34.397Z,17.05
2022-11-30T01:50:18.100Z,19.10
2022-11-30T01:52:50.532Z,18.52
2022-11-30T01:55:40.505Z,17.13
2022-11-30T01:58:15.030Z,17.70
2022-11-30T02:00:45.358Z,19.35
2022-11-30T02:03:30.367Z,16.52
2022-11-30T02:05:57.571Z,17.38
2022-11-30T02:08:24.552Z,16.73
2022-11-30T02:10:58.452Z,16.02
2022-11-30T02:13:49.449Z,16.67
2022-11-30T02:16:33.933Z,15.20
2022-11-30T02:19:37.932Z,14.15
2022-11-30T02:22:29.800Z,15.15
2022-11-30T02:25:14.207Z,14.68
2022-11-30T02:28:09.153Z,15.30
2022-11-30T02:30:42.107Z,14.23
2022-11-30T02:33:16.129Z,14.02
2022-11-30T02:35:50.239Z,14.20
2022-11-30T02:38:22.756Z,13.93
2022-11-30T02:40:49.757Z,13.88
2022-11-30T02:43:19.437Z,13.90
2022-11-30T02:45:58.760Z,15.02
2022-11-30T02:48:46.331Z,15.75
2022-11-30T02:51:18.228Z,13.75
2022-11-30T02:53:45.781Z,14.38
2022-11-30T02:56:12.649Z,12.25
2022-11-30T02:58:40.116Z,15.18
2022-11-30T03:01:06.906Z,16.67
2022-11-30T03:03:33.597Z,16.35
2022-11-30T03:06:00.336Z,15.68
2022-11-30T03:08:27.112Z,16.55
2022-11-30T03:10:53.893Z,16.27
2022-11-30T03:13:20.521Z,14.48
2022-11-30T03:15:47.808Z,12.00
2022-11-30T03:18:14.671Z,14.52
2022-11-30T03:20:42.602Z,15.07
2022-11-30T03:23:10.469Z,13.65
2022-11-30T03:25:37.233Z,14.25
2022-11-30T03:28:06.223Z,14.35
2022-11-30T03:30:32.855Z,15.13
2022-11-30T03:32:59.561Z,15.90
2022-11-30T03:35:26.188Z,14.43
2022-11-30T03:37:53.188Z,13.85
2022-11-30T03:40:19.892Z,13.50
2022-11-30T03:42:46.559Z,15.13
2022-11-30T03:45:13.212Z,15.07
2022-11-30T03:47:39.882Z,16.52
2022-11-30T03:50:07.280Z,15.50
2022-11-30T03:52:33.940Z,16.95
2022-11-30T03:55:00.574Z,14.60
2022-11-30T03:57:27.236Z,15.00
2022-11-30T03:59:53.902Z,17.33
2022-11-30T04:02:20.582Z,14.52
2022-11-30T04:04:47.532Z,14.02
2022-11-30T04:07:14.263Z,13.82
2022-11-30T04:09:40.912Z,13.75
2022-11-30T04:12:07.649Z,14.40
2022-11-30T04:14:34.296Z,14.50
2022-11-30T04:17:01.125Z,14.93
2022-11-30T04:19:27.755Z,14.93
2022-11-30T04:21:54.432Z,17.45
2022-11-30T04:24:21.139Z,17.55
2022-11-30T04:26:47.817Z,13.98
2022-11-30T04:29:14.492Z,14.90
2022-11-30T04:31:41.315Z,14.27
2022-11-30T04:34:08.122Z,15.93
2022-11-30T04:36:34.805Z,18.70
2022-11-30T04:39:01.459Z,17.55
2022-11-30T04:41:28.105Z,18.10
2022-11-30T04:43:54.954Z,16.77
2022-11-30T04:46:21.747Z,16.58
2022-11-30T04:48:48.466Z,13.20
2022-11-30T04:51:15.088Z,14.85
2022-11-30T04:53:41.769Z,17.52
2022-11-30T04:56:10.424Z,15.30
2022-11-30T04:58:38.611Z,16.55
2022-11-30T05:01:05.889Z,15.98
2022-11-30T05:03:32.626Z,17.70
2022-11-30T05:05:59.319Z,17.17
2022-11-30T05:08:26.331Z,16.50
2022-11-30T05:10:53.849Z,17.45
2022-11-30T05:13:21.893Z,15.63
2022-11-30T05:15:48.678Z,16.75
2022-11-30T05:18:18.220Z,14.43
2022-11-30T05:20:52.837Z,15.77
2022-11-30T05:23:20.373Z,16.13
2022-11-30T05:25:47.129Z,14.63
2022-11-30T05:28:14.411Z,15.00
2022-11-30T05:30:42.556Z,16.10
2022-11-30T05:33:09.384Z,17.25
2022-11-30T05:35:36.307Z,15.90
2022-11-30T05:38:03.124Z,16.27
2022-11-30T05:40:32.343Z,14.98
2022-11-30T05:43:00.472Z,17.13
2022-11-30T05:45:27.255Z,16.00
2022-11-30T05:47:54.214Z,17.65
2022-11-30T05:50:21.231Z,16.83
2022-11-30T05:52:47.899Z,18.55
2022-11-30T05:55:14.678Z,18.00
2022-11-30T05:57:41.333Z,16.02
2022-11-30T06:00:09.742Z,17.30
2022-11-30T06:02:36.548Z,16.95
2022-11-30T06:05:03.361Z,19.33
2022-11-30T06:07:30.246Z,18.58
2022-11-30T06:09:57.316Z,17.48
2022-11-30T06:12:24.059Z,17.98
2022-11-30T06:14:53.868Z,19.48
2022-11-30T06:17:20.505Z,17.77
2022-11-30T06:19:47.203Z,16.00
2022-11-30T06:22:13.883Z,16.42
2022-11-30T06:24:40.589Z,18.08
2022-11-30T06:27:07.225Z,18.88
2022-11-30T06:29:33.896Z,18.80
2022-11-30T06:32:00.692Z,17.13
2022-11-30T06:34:27.491Z,14.07
2022-11-30T06:36:54.153Z,11.55
2022-11-30T06:39:43.064Z,12.85
2022-11-30T06:42:07.524Z,18.70
2022-11-30T06:44:34.168Z,14.10
2022-11-30T06:47:00.803Z,16.25
2022-11-30T06:49:28.172Z,15.50
2022-11-30T06:51:54.800Z,19.27
2022-11-30T06:54:21.632Z,19.02
2022-11-30T06:56:48.661Z,17.10
2022-11-30T06:59:15.370Z,18.35
2022-11-30T07:01:42.060Z,15.98
2022-11-30T07:04:09.288Z,17.25
2022-11-30T07:06:36.342Z,15.35
2022-11-30T07:09:02.989Z,15.45
2022-11-30T07:11:29.686Z,16.42
2022-11-30T07:13:56.346Z,13.57
2022-11-30T07:16:23.086Z,12.82
2022-11-30T07:18:49.765Z,12.90
2022-11-30T07:21:16.452Z,13.93
2022-11-30T07:24:03.194Z,13.45
2022-11-30T07:26:30.051Z,12.65
2022-11-30T07:29:00.328Z,12.80
2022-11-30T07:31:29.568Z,13.85
2022-11-30T07:33:57.745Z,12.43
2022-11-30T07:36:27.213Z,13.95
2022-11-30T07:38:53.830Z,11.82
2022-11-30T07:41:20.597Z,11.60
2022-11-30T07:43:47.277Z,12.00
2022-11-30T07:46:16.415Z,11.57
2022-11-30T07:48:44.143Z,9.52
2022-11-30T07:51:14.862Z,10.07
2022-11-30T07:53:41.679Z,10.88
2022-11-30T07:56:11.419Z,9.73
2022-11-30T07:58:38.860Z,8.70
2022-11-30T08:01:09.087Z,9.82
2022-11-30T08:03:37.589Z,8.23
2022-11-30T08:06:09.391Z,9.57
2022-11-30T08:08:37.815Z,10.52
2022-11-30T08:11:06.723Z,10.25
2022-11-30T08:13:33.756Z,11.10
2022-11-30T08:16:09.319Z,9.88
2022-11-30T08:18:36.471Z,10.05
2022-11-30T08:21:05.517Z,9.95
2022-11-30T08:23:42.848Z,8.85
2022-11-30T08:26:13.855Z,8.88
2022-11-30T08:28:41.644Z,11.50
2022-11-30T08:31:14.317Z,24.35
2022-11-30T08:33:41.528Z,18.48
2022-11-30T08:36:11.265Z,15.80
2022-11-30T08:38:38.833Z,18.58
2022-11-30T08:41:07.143Z,20.30
2022-11-30T08:43:34.465Z,18.77
2022-11-30T08:49:02.354Z,13.50
2022-11-30T08:54:27.373Z,12.35
2022-11-30T08:56:54.093Z,12.23
2022-11-30T08:59:20.812Z,11.32
2022-11-30T09:01:47.461Z,11.35
2022-11-30T09:04:14.159Z,12.52
2022-11-30T09:06:41.973Z,11.50
2022-11-30T09:09:08.616Z,12.50
2022-11-30T09:11:35.298Z,12.85
2022-11-30T09:14:09.080Z,12.02
2022-11-30T09:16:35.999Z,13.43
2022-11-30T09:19:03.011Z,14.27
2022-11-30T09:21:30.378Z,13.82
2022-11-30T09:23:57.088Z,12.25
2022-11-30T09:26:25.374Z,12.95
2022-11-30T09:28:54.764Z,12.60
2022-11-30T09:31:26.630Z,12.48
2022-11-30T09:33:56.110Z,10.05
2022-11-30T09:36:24.075Z,11.63
2022-11-30T09:38:50.829Z,12.30
2022-11-30T09:41:31.040Z,12.45
2022-11-30T09:44:14.630Z,10.60
2022-11-30T09:46:59.496Z,11.23
2022-11-30T09:49:43.494Z,10.82
2022-11-30T09:52:20.721Z,9.50
2022-11-30T09:54:48.202Z,10.30
2022-11-30T09:57:32.082Z,11.85
2022-11-30T10:00:03.469Z,11.70
2022-11-30T10:02:32.936Z,9.73
2022-11-30T10:05:00.777Z,9.43
2022-11-30T10:07:40.087Z,10.07
2022-11-30T10:10:43.785Z,10.07
2022-11-30T10:14:04.389Z,11.75
2022-11-30T10:16:49.573Z,8.88
2022-11-30T10:19:25.645Z,8.75
2022-11-30T10:22:01.327Z,9.20
2022-11-30T10:24:47.231Z,9.52
2022-11-30T10:27:18.552Z,8.40
2022-11-30T10:29:45.250Z,9.13
2022-11-30T10:32:22.386Z,9.13
2022-11-30T10:34:54.486Z,8.35
2022-11-30T10:37:37.180Z,8.43
2022-11-30T10:40:25.602Z,8.43
2022-11-30T10:43:29.507Z,7.70
2022-11-30T10:45:56.325Z,7.72
2022-11-30T10:48:46.054Z,7.60
2022-11-30T10:51:15.584Z,8.15
2022-11-30T10:53:42.328Z,7.30
2022-11-30T10:56:13.106Z,8.20
2022-11-30T10:59:03.373Z,6.63
2022-11-30T11:01:30.173Z,5.72
2022-11-30T11:04:18.809Z,6.82
2022-11-30T11:07:14.302Z,7.82
2022-11-30T11:09:49.027Z,7.35
2022-11-30T11:12:24.520Z,8.43
2022-11-30T11:15:17.985Z,8.05
2022-11-30T11:17:45.270Z,7.00
2022-11-30T11:20:38.991Z,6.90
2022-11-30T11:23:05.687Z,7.03
2022-11-30T11:25:35.968Z,7.55
2022-11-30T11:28:15.307Z,7.93
2022-11-30T11:30:42.295Z,6.93
2022-11-30T11:33:12.192Z,6.97
2022-11-30T11:35:42.847Z,7.75
2022-11-30T11:38:21.243Z,7.35
2022-11-30T11:40:56.498Z,7.13
2022-11-30T11:43:25.781Z,8.07
2022-11-30T11:45:55.837Z,8.68
2022-11-30T11:48:41.400Z,7.57
2022-11-30T11:51:10.139Z,6.57
2022-11-30T11:53:57.069Z,7.25
2022-11-30T11:56:34.076Z,6.68
2022-11-30T11:59:34.456Z,5.80
2022-11-30T12:02:13.116Z,6.47
2022-11-30T12:04:45.373Z,7.45
2022-11-30T12:07:36.892Z,6.63
2022-11-30T12:13:19.749Z,7.35
2022-11-30T12:15:58.637Z,7.05
2022-11-30T12:18:34.877Z,7.43
2022-11-30T12:21:12.918Z,6.88
2022-11-30T12:24:13.391Z,7.22
2022-11-30T12:26:55.564Z,6.78
2022-11-30T12:29:52.376Z,6.18
2022-11-30T12:32:48.441Z,6.13
2022-11-30T12:35:45.846Z,6.25
2022-11-30T12:38:31.360Z,6.07
2022-11-30T12:41:26.610Z,5.93
2022-11-30T12:44:00.448Z,5.97
2022-11-30T12:46:55.110Z,6.45
2022-11-30T12:49:48.640Z,6.43
2022-11-30T12:52:36.730Z,6.25
2022-11-30T12:55:11.494Z,7.32
2022-11-30T12:58:06.109Z,5.70
2022-11-30T13:01:11.125Z,6.25
2022-11-30T13:04:04.697Z,5.63
2022-11-30T13:06:40.314Z,6.25
2022-11-30T13:09:30.186Z,5.63
2022-11-30T13:12:03.549Z,5.90
2022-11-30T13:14:31.052Z,5.18
2022-11-30T13:17:13.420Z,5.30
2022-11-30T13:19:54.019Z,6.07
2022-11-30T13:22:50.903Z,5.38
2022-11-30T13:25:34.045Z,5.88
2022-11-30T13:28:19.708Z,5.50
2022-11-30T13:31:10.718Z,5.32
2022-11-30T13:33:38.973Z,5.53
2022-11-30T13:36:22.207Z,5.60
2022-11-30T13:39:16.602Z,5.05
2022-11-30T13:41:49.478Z,5.43
2022-11-30T13:44:32.675Z,5.65
2022-11-30T13:47:03.107Z,5.47
2022-11-30T13:49:35.684Z,5.03
2022-11-30T13:52:23.561Z,5.70
2022-11-30T13:54:57.148Z,5.07
2022-11-30T13:57:30.262Z,5.47
2022-11-30T14:00:03.686Z,4.80
2022-11-30T14:02:33.183Z,5.50
2022-11-30T14:05:17.935Z,5.63
2022-11-30T14:08:00.932Z,6.03
2022-11-30T14:10:29.319Z,5.55
2022-11-30T14:13:09.402Z,6.15
2022-11-30T14:16:05.543Z,5.55
2022-11-30T14:18:45.584Z,5.40
2022-11-30T14:21:31.291Z,6.35
2022-11-30T14:24:00.131Z,6.05
2022-11-30T14:26:43.888Z,5.60
2022-11-30T14:29:25.208Z,5.50
2022-11-30T14:31:58.295Z,6.03
2022-11-30T14:34:28.920Z,5.32
2022-11-30T14:37:00.583Z,5.38
2022-11-30T14:39:41.600Z,5.55
2022-11-30T14:42:26.249Z,6.10
2022-11-30T14:44:53.843Z,5.80
2022-11-30T14:47:35.439Z,5.10
2022-11-30T14:50:08.202Z,5.38
2022-11-30T14:53:00.015Z,4.88
2022-11-30T14:55:52.707Z,5.40
2022-11-30T14:58:46.972Z,5.65
2022-11-30T15:01:26.107Z,6.43
2022-11-30T15:03:56.947Z,5.90
2022-11-30T15:06:31.405Z,5.40
2022-11-30T15:09:00.507Z,5.10
2022-11-30T15:11:28.325Z,4.80
2022-11-30T15:14:08.420Z,5.82
2022-11-30T15:16:35.202Z,4.85
2022-11-30T15:19:22.268Z,6.78
2022-11-30T15:21:50.430Z,5.80
2022-11-30T15:24:17.439Z,6.50
2022-11-30T15:27:13.707Z,5.47
2022-11-30T15:29:47.759Z,5.40
2022-11-30T15:32:23.065Z,6.72
2022-11-30T15:34:56.257Z,9.63
2022-11-30T15:37:35.270Z,8.63
2022-11-30T15:40:09.592Z,6.32
2022-11-30T15:42:43.587Z,8.23
2022-11-30T15:45:19.591Z,8.70
2022-11-30T15:47:46.502Z,7.78
2022-11-30T15:50:28.625Z,7.32
2022-11-30T15:55:44.800Z,6.75
2022-11-30T15:58:45.650Z,7.93
2022-11-30T16:01:18.515Z,8.90
2022-11-30T16:04:05.808Z,6.82
2022-11-30T16:06:52.758Z,6.03
2022-11-30T16:09:32.553Z,5.82
2022-11-30T16:12:02.993Z,5.20
2022-11-30T16:14:29.845Z,6.82
2022-11-30T16:16:56.935Z,6.57
2022-11-30T16:19:23.759Z,8.77
2022-11-30T16:21:50.616Z,7.75
2022-11-30T16:24:17.783Z,7.45
2022-11-30T16:26:52.326Z,7.38
2022-11-30T16:29:19.809Z,8.23
2022-11-30T16:31:46.590Z,7.18
2022-11-30T16:34:13.602Z,7.53
2022-11-30T16:36:40.385Z,6.65
2022-11-30T16:39:09.194Z,7.20
2022-11-30T16:41:36.198Z,7.20
2022-11-30T16:44:02.998Z,6.72
2022-11-30T16:46:31.388Z,7.22
2022-11-30T16:48:58.359Z,6.68
2022-11-30T16:51:31.388Z,8.25
2022-11-30T16:53:58.473Z,6.65
2022-11-30T16:56:25.496Z,7.43
2022-11-30T16:58:52.627Z,6.32
2022-11-30T17:01:22.664Z,5.90
2022-11-30T17:03:51.414Z,6.40
2022-11-30T17:06:22.419Z,6.90
2022-11-30T17:08:49.898Z,7.43
2022-11-30T17:11:29.488Z,11.98
2022-11-30T17:13:56.780Z,8.55
2022-11-30T17:16:23.746Z,7.68
2022-11-30T17:18:50.499Z,6.85
2022-11-30T17:21:21.735Z,7.20
2022-11-30T17:23:48.459Z,7.13
2022-11-30T17:26:15.380Z,11.55
2022-11-30T17:28:42.369Z,10.40
2022-11-30T17:31:10.574Z,9.88
2022-11-30T17:33:39.101Z,8.02
2022-11-30T17:36:11.611Z,7.47
2022-11-30T17:38:38.824Z,7.07
2022-11-30T17:41:07.748Z,6.22
2022-11-30T17:43:36.452Z,5.85
2022-11-30T17:46:09.824Z,7.47
2022-11-30T17:48:37.348Z,6.45
2022-11-30T17:51:04.795Z,6.93
2022-11-30T17:53:31.749Z,6.00
2022-11-30T17:56:06.989Z,6.25
2022-11-30T17:58:36.030Z,6.22
2022-11-30T18:01:11.571Z,7.18
2022-11-30T18:03:38.251Z,5.30
2022-11-30T18:06:05.169Z,5.75
2022-11-30T18:08:35.452Z,6.47
2022-11-30T18:11:08.296Z,5.63
2022-11-30T18:13:34.966Z,5.15
2022-11-30T18:16:17.553Z,5.75
2022-11-30T18:18:48.151Z,5.22
2022-11-30T18:21:18.526Z,6.90
2022-11-30T18:23:45.937Z,5.82
2022-11-30T18:26:15.588Z,5.82
2022-11-30T18:28:42.745Z,5.53
2022-11-30T18:31:09.627Z,5.50
2022-11-30T18:33:37.680Z,4.70
2022-11-30T18:36:08.349Z,4.65
2022-11-30T18:38:38.566Z,5.88
2022-11-30T18:41:06.203Z,5.18
2022-11-30T18:43:33.909Z,4.78
2022-11-30T18:46:05.802Z,4.90
2022-11-30T18:48:33.002Z,5.70
2022-11-30T18:50:59.804Z,5.60
2022-11-30T18:53:26.708Z,5.15
2022-11-30T18:55:53.429Z,4.90
2022-11-30T18:58:20.264Z,5.15
2022-11-30T19:00:47.130Z,4.78
2022-11-30T19:03:14.038Z,5.20
2022-11-30T19:05:40.843Z,5.93
2022-11-30T19:08:11.361Z,6.03
2022-11-30T19:10:40.041Z,5.03
2022-11-30T19:13:07.348Z,5.50
2022-11-30T19:15:42.005Z,5.90
2022-11-30T19:18:11.069Z,5.70
2022-11-30T19:20:41.470Z,4.93
2022-11-30T19:23:08.408Z,6.18
2022-11-30T19:25:35.341Z,5.70
2022-11-30T19:28:02.032Z,5.88
2022-11-30T19:30:28.762Z,5.68
2022-11-30T19:32:55.517Z,5.75
2022-11-30T19:35:25.176Z,5.68
2022-11-30T19:37:52.633Z,5.78
2022-11-30T19:40:19.571Z,5.80
2022-11-30T19:42:46.322Z,5.90
2022-11-30T19:45:13.118Z,5.72
2022-11-30T19:47:39.846Z,5.97
2022-11-30T19:50:07.108Z,5.95
2022-11-30T19:52:33.959Z,6.55
2022-11-30T19:55:00.706Z,10.57
2022-11-30T19:57:27.444Z,7.63
2022-11-30T19:59:54.327Z,7.55
2022-11-30T20:02:21.219Z,6.80
2022-11-30T20:04:48.455Z,5.60
2022-11-30T20:07:18.380Z,6.38
2022-11-30T20:09:45.175Z,5.97
2022-11-30T20:12:15.106Z,6.50
2022-11-30T20:14:41.820Z,6.50
2022-11-30T20:17:08.615Z,6.05
2022-11-30T20:19:35.301Z,6.78
2022-11-30T20:22:04.822Z,6.57
2022-11-30T20:24:31.645Z,6.25
2022-11-30T20:26:58.527Z,7.30
2022-11-30T20:29:25.228Z,6.13
2022-11-30T20:31:51.936Z,5.93
2022-11-30T20:34:18.632Z,5.28
2022-11-30T20:36:45.545Z,5.35
2022-11-30T20:39:12.877Z,7.45
2022-11-30T20:41:39.947Z,6.85
2022-11-30T20:44:06.683Z,5.80
2022-11-30T20:46:36.709Z,6.03
2022-11-30T20:49:11.553Z,7.45
2022-11-30T20:51:38.207Z,6.82
2022-11-30T20:54:06.957Z,6.70
2022-11-30T20:56:36.512Z,6.95
2022-11-30T20:59:06.179Z,7.78
2022-11-30T21:01:33.606Z,7.20
2022-11-30T21:04:00.928Z,5.90
2022-11-30T21:06:29.219Z,6.13
2022-11-30T21:08:55.939Z,6.03
2022-11-30T21:11:23.293Z,5.38
2022-11-30T21:13:50.902Z,5.40
2022-11-30T21:16:26.910Z,5.00
2022-11-30T21:18:54.434Z,4.47
2022-11-30T21:21:23.569Z,5.07
2022-11-30T21:23:51.017Z,5.25
2022-11-30T21:26:22.201Z,5.65
2022-11-30T21:28:49.879Z,4.68
2022-11-30T21:31:16.644Z,5.95
2022-11-30T21:33:48.848Z,5.50
2022-11-30T21:36:19.271Z,5.53
2022-11-30T21:38:45.999Z,5.43
2022-11-30T21:41:14.066Z,6.03
2022-11-30T21:43:41.858Z,5.70
2022-11-30T21:46:14.460Z,5.22
2022-11-30T21:48:44.990Z,6.40
2022-11-30T21:51:14.447Z,5.03
2022-11-30T21:53:46.888Z,5.78
2022-11-30T21:56:18.792Z,5.15
2022-11-30T21:58:47.317Z,4.60
2022-11-30T22:01:20.210Z,4.93
2022-11-30T22:03:47.407Z,4.97
2022-11-30T22:06:16.477Z,4.75
2022-11-30T22:08:44.038Z,5.05
2022-11-30T22:11:16.463Z,4.28
2022-11-30T22:13:43.814Z,4.45
2022-11-30T22:16:16.057Z,4.90
2022-11-30T22:18:44.734Z,4.45
2022-11-30T22:21:14.586Z,4.75
2022-11-30T22:23:43.517Z,5.00
2022-11-30T22:26:16.143Z,5.18
2022-11-30T22:28:48.049Z,4.30
2022-11-30T22:31:16.902Z,4.22
2022-11-30T22:33:44.592Z,4.28
2022-11-30T22:36:23.150Z,3.78
2022-11-30T22:38:56.708Z,4.07
2022-11-30T22:41:24.484Z,4.30
2022-11-30T22:43:51.718Z,4.18
2022-11-30T22:46:21.102Z,3.85
2022-11-30T22:48:48.371Z,4.53
2022-11-30T22:51:21.458Z,3.72
2022-11-30T22:53:49.001Z,3.35
2022-11-30T22:56:26.716Z,3.75
2022-11-30T22:58:55.649Z,3.50
2022-11-30T23:01:25.109Z,3.60
2022-11-30T23:03:56.280Z,3.35
2022-11-30T23:06:24.497Z,3.78
2022-11-30T23:08:52.697Z,3.78
2022-11-30T23:11:25.331Z,3.47
2022-11-30T23:13:52.339Z,3.30
2022-11-30T23:16:19.992Z,3.50
2022-11-30T23:18:54.004Z,3.28
2022-11-30T23:21:27.099Z,2.90
2022-11-30T23:23:57.163Z,3.08
2022-11-30T23:26:26.673Z,3.67
2022-11-30T23:28:54.773Z,3.15
2022-11-30T23:31:32.680Z,2.80
2022-11-30T23:34:03.416Z,2.78
2022-11-30T23:36:30.045Z,2.85
2022-11-30T23:39:02.193Z,2.97
2022-11-30T23:41:28.993Z,2.97
2022-11-30T23:43:55.951Z,2.95
2022-11-30T23:46:22.857Z,3.25
2022-11-30T23:48:49.887Z,3.00
2022-11-30T23:51:16.626Z,2.50
2022-11-30T23:53:43.347Z,3.03
2022-11-30T23:56:13.296Z,3.50
2022-11-30T23:58:40.091Z,3.70
